Sweeney Granite Mountains, California Weather observations

Data are for 10 minute period ending at time listed.
 Day   Time   Solar   Ave.   Ave.  Ave.  Vector  Max.   Baro.   Total    
  of    of     Rad.   Air    Rel.  Wind   Wind   Wind  Press.  Precip.   
Year   Day            Temp.  Hum.  Speed  Dir.   Gust                    
2017   (PST)  Kw/m2    F      %     mph   deg.    mph    mb.     in.     
-------------------------------------------------------------------------
 172   18:10   0.03   95.5     7    6.1   238    15.2   865.4    0.00 
 172   18:20   0.02   95.0     8    3.6   240     8.8   865.5    0.00 
 172   18:30   0.01   94.7     8    4.6   238    12.6   865.6    0.00 
 172   18:40   0.01   94.2     8    4.0   280     8.2   865.7    0.00 
 172   18:50   0.01   93.5     8    3.4   252    10.0   865.7    0.00 
 172   19:00   0.00   93.3     8    2.8   268     7.2   865.8    0.00 
 172   19:10   0.00   92.2     8    2.8   277     5.9   865.8    0.00 
 172   19:20   0.00   91.4     8    3.0   278     6.3   865.8    0.00 
 172   19:30   0.00   89.5     8    4.8   288     8.7   865.9    0.00 
 172   19:40   0.00   89.8     8    4.5   280     6.9   866.0    0.00 
 172   19:50   0.00   88.2     8    4.6   284     7.7   866.1    0.00 
 172   20:00   0.00   89.0     8    4.3   279     7.1   866.1    0.00 
 172   20:10   0.00   88.8     8    2.7   288     5.3   866.2    0.00 
 172   20:20   0.00   87.9     8    4.0   293     6.4   866.2    0.00 
 172   20:30   0.00   87.8     8    4.1   287     6.5   866.2    0.00 
 172   20:40   0.00   86.8     9    4.8   285     6.7   866.2    0.00 
 172   20:50   0.00   87.1     9    5.7   282    10.0   866.3    0.00 
 172   21:00   0.00   88.6     9    6.0   288    10.2   866.4    0.00 
 172   21:10   0.00   88.4     9    6.0   290     9.5   866.5    0.00 
 172   21:20   0.00   88.2     8    5.6   293     9.9   866.5    0.00 
 172   21:30   0.00   87.9     8    4.2   288     6.4   866.5    0.00 
 172   21:40   0.00   87.2     9    4.2   282     7.5   866.5    0.00 
 172   21:50   0.00   87.0     9    3.8   276     8.1   866.5    0.00 
 172   22:00   0.00   86.7     9    3.4   280     8.3   866.5    0.00 
 172   22:10   0.00   87.0     9    3.1   314     5.0   866.5    0.00 
 172   22:20   0.00   87.6     8    1.7   294     6.5   866.5    0.00 
 172   22:30   0.00   86.5     9    4.2   325     7.1   866.5    0.00 
 172   22:40   0.00   83.9    10    5.2   283     6.7   866.5    0.00 
 172   22:50   0.00   82.1    11    4.8   280     6.8   866.4    0.00 
 172   23:00   0.00   82.5    10    3.1   274     5.1   866.3    0.00 
 172   23:10   0.00   82.8    11    7.7   269    11.3   866.3    0.00 
 172   23:20   0.00   85.0    11    7.8   265    10.4   866.2    0.00 
 172   23:30   0.00   84.8    12    7.7   293    12.6   866.1    0.00 
 172   23:40   0.00   84.7    12    6.7   289    11.1   866.0    0.00 
 172   23:50   0.00   84.7    12    7.2   260    11.6   866.0    0.00 
 173    0:00   0.00   84.8    12    4.5   261    10.2   866.0    0.00 
 173    0:10   0.00   83.5    13    7.1   294    10.7   866.0    0.00 
 173    0:20   0.00   83.3    14    8.5   280    13.9   866.0    0.00 
 173    0:30   0.00   83.6    14    9.1   280    13.3   866.0    0.00 
 173    0:40   0.00   83.5    14    9.1   269    12.7   866.0    0.00 
 173    0:50   0.00   83.8    14    9.6   263    13.3   865.9    0.00 
 173    1:00   0.00   83.6    14    9.0   264    11.9   865.9    0.00 
 173    1:10   0.00   84.7    11    6.8   259     9.3   865.9    0.00 
 173    1:20   0.00   83.9    13    7.2   254     9.9   865.9    0.00 
 173    1:30   0.00   83.4    13    5.6   254     8.0   865.9    0.00 
 173    1:40   0.00   81.3    14    5.0   266     8.6   865.8    0.00 
 173    1:50   0.00   82.2    14    7.4   264     9.2   865.8    0.00 
 173    2:00   0.00   82.6    13    6.8   263     9.1   865.7    0.00 
 173    2:10   0.00   81.6    14    5.2   270     8.1   865.7    0.00 
 173    2:20   0.00   78.7    14    4.3   266     5.7   865.7    0.00 
 173    2:30   0.00   78.1    12    4.0   274     5.6   865.5    0.00 
 173    2:40   0.00   81.3    12    5.4   271     7.2   865.5    0.00 
 173    2:50   0.00   81.9    12    4.4   269     6.9   865.5    0.00 
 173    3:00   0.00   81.1    11    4.7   273     7.5   865.6    0.00 
 173    3:10   0.00   80.3    12    4.4   272     6.4   865.6    0.00 
 173    3:20   0.00   78.3    12    4.6   267     5.8   865.6    0.00 
 173    3:30   0.00   80.1    11    4.6   268     6.2   865.6    0.00 
 173    3:40   0.00   79.4    11    4.3   264     6.1   865.6    0.00 
 173    3:50   0.00   76.2    12    5.1   273     6.1   865.6    0.00 
 173    4:00   0.00   79.2    11    6.6   270     9.3   865.6    0.00 
 173    4:10   0.00   81.7    14    7.8   315    14.8   865.7    0.00 
 173    4:20   0.00   83.3    14    9.2   321    14.2   865.7    0.00 
 173    4:30   0.00   82.9    14    8.1   304    13.4   865.8    0.00 
 173    4:40   0.00   82.3    14    6.5   268    10.0   865.9    0.00 
 173    4:50   0.00   83.9    10    4.5   243     7.5   866.0    0.00 
 173    5:00   0.01   83.7     9    5.6   256     9.2   866.0    0.00 
 173    5:10   0.01   83.2    12    6.0   266     9.3   866.1    0.00 
 173    5:20   0.02   82.9    13    5.4   271     9.4   866.1    0.00 
 173    5:30   0.03   83.3    13    5.8   252     8.3   866.2    0.00 
 173    5:40   0.03   84.8    11    5.2   252     8.0   866.3    0.00 
 173    5:50   0.14   85.8    12    3.8   268     6.3   866.4    0.00 
 173    6:00   0.18   87.0    12    5.3   286     8.8   866.5    0.00 
 173    6:10   0.22   87.0    13    5.4   299    10.2   866.7    0.00 
 173    6:20   0.25   88.7    12    3.2   260     5.6   866.8    0.00 
 173    6:30   0.29   90.3    10    3.1   250     5.0   866.9    0.00 
 173    6:40   0.32   91.1     9    3.0   173     4.7   867.1    0.00 
 173    6:50   0.36   91.6     8    1.9   106     4.4   867.2    0.00 
 173    7:00   0.40   93.1     9    2.2   188     6.0   867.3    0.00 
 173    7:10   0.43   91.5    10    3.6   116     7.0   867.4    0.00 
 173    7:20   0.47   90.8    11    3.4   128     6.6   867.4    0.00 
 173    7:30   0.50   91.2    11    3.7   125     7.2   867.5    0.00 
 173    7:40   0.53   91.2    10    3.7   127     7.5   867.6    0.00 
 173    7:50   0.56   92.3    10    2.9   206     5.6   867.6    0.00 
 173    8:00   0.59   92.9    10    2.3   206     6.5   867.7    0.00 
 173    8:10   0.63   92.8    10    4.3   214     8.7   867.8    0.00 
 173    8:20   0.66   93.1     9    3.5   221     7.2   867.9    0.00 
 173    8:30   0.70   93.2     9    3.5   209     7.2   867.9    0.00 
 173    8:40   0.73   92.7     9    3.3   188     7.5   867.9    0.00 
 173    8:50   0.75   93.3     8    4.7   139    11.5   867.9    0.00 
 173    9:00   0.78   94.0     8    4.0   112     8.6   867.9    0.00 
 173    9:10   0.81   95.0     8    3.0   184    11.5   867.9    0.00 
 173    9:20   0.83   95.0     8    5.6   199    10.7   868.0    0.00 
 173    9:30   0.85   95.1     8    3.9   182     8.6   868.1    0.00 
 173    9:40   0.88   95.0     8    4.9   120     9.3   868.1    0.00 
 173    9:50   0.89   94.8     8    3.2   127     8.0   868.1    0.00 
 173   10:00   0.91   95.4     7    2.8   149    10.6   868.1    0.00 
 173   10:10   0.93   95.8     6    4.7   214    10.4   868.1    0.00 
 173   10:20   0.94   95.6     6    5.5   228    11.4   868.1    0.00 
 173   10:30   0.96   96.3     6    4.4   203    13.4   868.1    0.00 
 173   10:40   0.97   96.7     6    5.0   199     9.2   868.1    0.00 
 173   10:50   0.98   97.0     7    3.6   207    10.0   868.1    0.00 
 173   11:00   0.99   97.1     7    4.3   208    11.5   868.1    0.00 
 173   11:10   1.00   97.3     7    4.9   213    10.5   868.1    0.00 
 173   11:20   1.00   97.3     7    3.2   173     9.9   868.1    0.00 
 173   11:30   1.00   96.7     7    6.7   144    14.9   868.0    0.00 
 173   11:40   1.00   97.5     7    3.2   138    11.8   868.1    0.00 
 173   11:50   1.01   98.4     7    3.1   192     9.4   868.0    0.00 
 173   12:00   1.00   97.6     8    5.2   130    13.9   867.9    0.00 
 173   12:10   1.00   98.5     7    2.8   181     8.8   867.9    0.00 
 173   12:20   0.98   97.9     7    8.5   222    17.8   867.9    0.00 
 173   12:30   0.99   97.8     7    4.9   224    12.7   867.8    0.00 
 173   12:40   0.99   97.6     7    7.7   220    15.8   867.8    0.00 
 173   12:50   0.98   97.4     7    6.9   227    17.2   867.7    0.00 
 173   13:00   0.97   98.0     7    4.5   224    16.4   867.7    0.00 
 173   13:10   0.96   99.9     7    5.7   276    18.3   867.5    0.00 
 173   13:20   0.95   98.3     7    7.3   215    15.1   867.5    0.00 
 173   13:30   0.93   98.0     7    6.0   203    16.1   867.5    0.00 
 173   13:40   0.92   98.2     7    6.8   223    14.3   867.5    0.00 
 173   13:50   0.90   99.5     7    6.5   230    16.0   867.4    0.00 
 173   14:00   0.88   99.0     7    4.6   204    13.8   867.3    0.00 
 173   14:10   0.86   99.0     7    6.5   209    14.0   867.2    0.00 
 173   14:20   0.84   98.9     7    7.7   227    14.8   867.2    0.00 
 173   14:30   0.82   99.9     7    4.2   272    12.8   867.1    0.00 
 173   14:40   0.80  100.0     6    6.5   279    15.3   867.1    0.00 
 173   14:50   0.77   99.1     7    7.1   219    15.3   867.0    0.00 
 173   15:00   0.74   99.2     7    5.6   219    18.6   866.9    0.00 
 173   15:10   0.71   99.2     7    6.7   214    15.6   866.8    0.00 
 173   15:20   0.68   99.7     7    4.4   247    14.0   866.7    0.00 
 173   15:30   0.65  101.1     7    7.3   255    17.7   866.6    0.00 
 173   15:40   0.62   99.8     7   11.7   250    19.4   866.7    0.00 
 173   15:50   0.59   98.6     7    7.1   254    14.6   866.7    0.00 
 173   16:00   0.55  100.0     6    6.2   270    15.6   866.6    0.00 
 173   16:10   0.52   99.5     7    7.9   277    13.6   866.6    0.00 
 173   16:20   0.49  100.0     7    4.3   249     9.3   866.6    0.00 
 173   16:30   0.45  100.4     7    8.4   279    15.2   866.6    0.00 
 173   16:40   0.42   99.1     7   10.7   286    17.2   866.6    0.00 
 173   16:50   0.39   99.1     7    5.6   254    13.5   866.5    0.00 
 173   17:00   0.35   99.8     7    3.7   256     6.9   866.4    0.00 
 173   17:10   0.32   99.0     7    5.3   228    13.2   866.4    0.00 
 173   17:20   0.28   98.5     7    5.1   223    12.9   866.4    0.00 
 173   17:30   0.25   99.1     7    4.1   228    10.8   866.5    0.00 
 173   17:40   0.21   98.5     7    3.9   251     9.1   866.4    0.00 
 173   17:50   0.18   98.2     7    3.8   244     9.1   866.5    0.00 
 173   18:00   0.05   97.0     8    2.8   238     8.2   866.6    0.00 

Return to Sweeney Granite Mountains graphs page.


Western Regional Climate Center,wrcc@dri.edu